createdAt,value
2023-01-08T00:00:32.740Z,10.2
2023-01-08T00:02:37.869Z,9.9
2023-01-08T00:04:39.705Z,10
2023-01-08T00:08:43.584Z,9.7
2023-01-08T00:10:45.584Z,9.9
2023-01-08T00:12:47.601Z,9.7
2023-01-08T00:14:49.579Z,9.8
2023-01-08T00:16:54.745Z,10
2023-01-08T00:18:56.550Z,9.6
2023-01-08T00:20:58.583Z,10
2023-01-08T00:23:00.582Z,10
2023-01-08T00:25:02.587Z,9.9
2023-01-08T00:27:04.460Z,10
2023-01-08T00:29:06.456Z,10
2023-01-08T00:31:11.629Z,10
2023-01-08T00:33:13.441Z,10
2023-01-08T00:37:17.280Z,10.2
2023-01-08T00:39:19.304Z,10.1
2023-01-08T00:41:21.274Z,10
2023-01-08T00:43:23.272Z,10.2
2023-01-08T00:45:28.487Z,10.3
2023-01-08T00:47:30.462Z,10.4
2023-01-08T00:49:32.366Z,10
2023-01-08T00:50:34.881Z,10.2
2023-01-08T00:52:36.866Z,10
2023-01-08T00:54:38.874Z,10.1
2023-01-08T00:56:40.739Z,10.1
2023-01-08T00:58:45.750Z,10.3
2023-01-08T01:00:47.849Z,10.3
2023-01-08T01:02:49.600Z,10.2
2023-01-08T01:04:51.486Z,10.3
2023-01-08T01:06:53.396Z,10.4
2023-01-08T01:08:55.392Z,10.3
2023-01-08T01:10:57.287Z,10.3
2023-01-08T01:17:06.253Z,10
2023-01-08T01:19:08.142Z,10.1
2023-01-08T01:27:19.121Z,9.8
2023-01-08T01:37:28.550Z,9.8
2023-01-08T01:39:30.546Z,9.7
2023-01-08T01:41:35.637Z,9.8
2023-01-08T01:43:37.623Z,9.9
2023-01-08T01:45:39.528Z,9.9
2023-01-08T01:46:42.111Z,9.9
2023-01-08T01:48:44.146Z,10
2023-01-08T01:50:46.094Z,9.8
2023-01-08T01:52:48.107Z,9.9
2023-01-08T01:54:53.335Z,9.9
2023-01-08T01:56:55.326Z,9.9
2023-01-08T01:58:57.317Z,9.9
2023-01-08T02:00:59.369Z,10.2
2023-01-08T02:03:01.271Z,10.1
2023-01-08T02:05:03.295Z,10
2023-01-08T02:07:05.273Z,10
2023-01-08T02:09:10.494Z,10
2023-01-08T02:11:12.476Z,10
2023-01-08T02:13:14.471Z,9.8
2023-01-08T02:15:16.446Z,9.7
2023-01-08T02:17:18.466Z,9.6
2023-01-08T02:19:20.431Z,9.1
2023-01-08T02:21:22.398Z,9.2
2023-01-08T02:23:27.640Z,8.7
2023-01-08T02:25:29.621Z,8.8
2023-01-08T02:27:31.508Z,9.1
2023-01-08T02:29:33.491Z,8.9
2023-01-08T02:31:35.521Z,8.8
2023-01-08T02:33:37.432Z,9
2023-01-08T02:35:39.447Z,8.7
2023-01-08T02:41:48.624Z,8.5
2023-01-08T02:42:51.242Z,8.6
2023-01-08T02:44:53.247Z,8.9
2023-01-08T02:48:57.186Z,8.7
2023-01-08T02:51:02.399Z,8.6
2023-01-08T02:53:04.355Z,8.7
2023-01-08T02:55:06.370Z,8.7
2023-01-08T02:57:09.211Z,8.8
2023-01-08T02:59:11.254Z,8.5
2023-01-08T03:01:13.370Z,8.6
2023-01-08T03:05:20.400Z,8.7
2023-01-08T03:07:22.356Z,8.5
2023-01-08T03:09:24.320Z,8.6
2023-01-08T03:11:26.291Z,8.6
2023-01-08T03:13:28.263Z,8.6
2023-01-08T03:15:30.256Z,8.8
2023-01-08T03:17:33.771Z,8.5
2023-01-08T03:19:38.927Z,8.3
2023-01-08T03:21:40.881Z,8.5
2023-01-08T03:23:42.870Z,8.5
2023-01-08T03:25:44.831Z,8.6
2023-01-08T03:27:46.814Z,8.3
2023-01-08T03:29:48.802Z,8.3
2023-01-08T03:31:50.757Z,8.5
2023-01-08T03:33:55.964Z,8.5
2023-01-08T03:35:57.919Z,8.5
2023-01-08T03:40:28.715Z,8.5
2023-01-08T03:42:30.675Z,8.3
2023-01-08T03:44:32.678Z,8.6
2023-01-08T03:46:37.940Z,8.5
2023-01-08T03:48:39.855Z,8.8
2023-01-08T03:50:41.815Z,8.9
2023-01-08T04:02:56.908Z,9.1
2023-01-08T04:04:58.854Z,8.9
2023-01-08T04:07:00.842Z,8.8
2023-01-08T04:09:02.808Z,9.1
2023-01-08T04:11:04.815Z,8.9
2023-01-08T04:13:06.787Z,8.7
2023-01-08T04:15:11.999Z,8.5
2023-01-08T04:17:14.015Z,8.7
2023-01-08T04:19:15.934Z,8.5
2023-01-08T04:21:17.911Z,8.6
2023-01-08T04:23:19.929Z,8.7
2023-01-08T04:25:21.867Z,8.5
2023-01-08T04:27:23.871Z,8.5
2023-01-08T04:29:29.035Z,8.6
2023-01-08T04:31:30.989Z,8.4
2023-01-08T04:34:35.549Z,8.4
2023-01-08T04:36:37.493Z,8.3
2023-01-08T04:38:39.485Z,8.2
2023-01-08T04:40:41.464Z,8.2
2023-01-08T04:42:46.668Z,8.4
2023-01-08T04:44:48.560Z,8.3
2023-01-08T04:46:50.502Z,8.3
2023-01-08T04:50:54.527Z,8
2023-01-08T04:52:56.487Z,8
2023-01-08T04:54:58.440Z,8.1
2023-01-08T04:57:03.646Z,8
2023-01-08T05:03:09.686Z,8.2
2023-01-08T05:05:11.538Z,8.1
2023-01-08T05:11:20.723Z,8.2
2023-01-08T05:13:22.705Z,8
2023-01-08T05:15:24.699Z,8.3
2023-01-08T05:17:26.694Z,8.1
2023-01-08T05:19:28.657Z,8.2
2023-01-08T05:25:37.784Z,8.3
2023-01-08T05:27:39.739Z,8.1
2023-01-08T05:29:41.728Z,8.1
2023-01-08T05:32:46.305Z,8
2023-01-08T05:34:48.271Z,8.3
2023-01-08T05:36:50.257Z,8.2
2023-01-08T05:38:55.473Z,8.2
2023-01-08T05:40:57.472Z,8.2
2023-01-08T05:42:59.423Z,8.4
2023-01-08T05:45:01.414Z,8.2
2023-01-08T05:47:03.379Z,8
2023-01-08T05:49:05.387Z,8.2
2023-01-08T05:51:07.383Z,8
2023-01-08T05:55:14.572Z,7.8
2023-01-08T05:57:16.541Z,8.1
2023-01-08T05:59:18.519Z,8.3
2023-01-08T06:01:20.599Z,8.5
2023-01-08T06:03:22.435Z,8.1
2023-01-08T06:05:24.444Z,8.3
2023-01-08T06:07:29.660Z,8.1
2023-01-08T06:09:31.588Z,8.3
2023-01-08T06:11:33.602Z,8.2
2023-01-08T06:13:35.562Z,8.1
2023-01-08T06:15:37.552Z,8.2
2023-01-08T06:17:39.502Z,8.4
2023-01-08T06:19:41.459Z,8
2023-01-08T06:21:46.641Z,8
2023-01-08T06:23:48.601Z,8.1
2023-01-08T06:26:53.222Z,7.9
2023-01-08T06:30:57.224Z,8
2023-01-08T06:37:06.344Z,8.2
2023-01-08T06:39:08.336Z,8
2023-01-08T06:45:14.240Z,7.7
2023-01-08T06:47:16.191Z,7.7
2023-01-08T06:55:27.339Z,7.6
2023-01-08T06:57:29.329Z,7.6
2023-01-08T07:03:38.506Z,7.4
2023-01-08T07:05:40.399Z,7.4
2023-01-08T07:07:42.364Z,7.5
2023-01-08T07:11:46.287Z,7.4
2023-01-08T07:13:48.258Z,7.6
2023-01-08T07:15:50.289Z,7.4
2023-01-08T07:19:57.389Z,7.4
2023-01-08T07:21:59.339Z,7.3
2023-01-08T07:24:28.189Z,7.4
2023-01-08T07:26:30.150Z,7.4
2023-01-08T07:30:37.316Z,7.3
2023-01-08T07:32:39.286Z,7.4
2023-01-08T07:34:41.266Z,7.3
2023-01-08T07:36:43.236Z,7.3
2023-01-08T07:40:47.123Z,7.4
2023-01-08T07:44:54.328Z,7.4
2023-01-08T07:46:56.395Z,7.3
2023-01-08T07:48:58.250Z,7
2023-01-08T07:51:00.191Z,7.4
2023-01-08T07:59:11.250Z,7.1
2023-01-08T08:07:19.102Z,7.2
2023-01-08T08:09:21.081Z,7.2
2023-01-08T08:11:23.028Z,7
2023-01-08T08:13:28.226Z,7.2
2023-01-08T08:15:30.182Z,7.5
2023-01-08T08:17:32.134Z,7.3
2023-01-08T08:18:34.697Z,7.3
2023-01-08T08:20:36.712Z,7.5
2023-01-08T08:22:38.643Z,7.4
2023-01-08T08:24:40.579Z,7.6
2023-01-08T08:26:45.753Z,7.6
2023-01-08T08:28:47.720Z,7.6
2023-01-08T08:30:49.699Z,7.6
2023-01-08T08:32:51.635Z,7.6
2023-01-08T08:34:53.608Z,7.7
2023-01-08T08:38:57.534Z,7.7
2023-01-08T08:45:06.652Z,8.1
2023-01-08T08:47:08.643Z,8.1
2023-01-08T08:53:14.537Z,8.2
2023-01-08T08:55:19.708Z,8.9
2023-01-08T08:57:21.687Z,8.5
2023-01-08T08:59:23.681Z,8.6
2023-01-08T09:01:25.801Z,8.9
2023-01-08T09:03:27.640Z,9.1
2023-01-08T09:05:29.591Z,9.5
2023-01-08T09:07:31.567Z,9.4
2023-01-08T09:09:38.301Z,8.7
2023-01-08T09:11:40.292Z,8.7
2023-01-08T09:13:42.258Z,8.8
2023-01-08T09:27:00.021Z,8.6
2023-01-08T09:29:02.013Z,8.2
2023-01-08T09:31:04.073Z,7.7
2023-01-08T09:33:05.938Z,7.7
2023-01-08T09:35:07.954Z,7.7
2023-01-08T09:37:13.148Z,9.1
2023-01-08T09:39:15.027Z,9.6
2023-01-08T09:41:17.008Z,9.9
2023-01-08T09:43:18.991Z,10.4
2023-01-08T09:45:20.970Z,10.6
2023-01-08T09:47:22.944Z,10.9
2023-01-08T09:49:24.915Z,10.9
2023-01-08T09:51:30.068Z,10.7
2023-01-08T09:53:31.997Z,10.6
2023-01-08T09:55:33.893Z,9.7
2023-01-08T09:57:35.797Z,10.8
2023-01-08T09:59:37.773Z,11.4
2023-01-08T10:01:39.775Z,11.2
2023-01-08T10:03:41.512Z,11.1
2023-01-08T10:07:48.442Z,10.6
2023-01-08T10:09:50.384Z,10.9
2023-01-08T10:10:52.837Z,10.7
2023-01-08T10:12:54.743Z,10.3
2023-01-08T10:14:56.603Z,9.9
2023-01-08T10:16:58.515Z,9.3
2023-01-08T10:19:03.520Z,8.6
2023-01-08T10:25:09.212Z,8.9
2023-01-08T10:27:11.113Z,8.8
2023-01-08T10:29:13.016Z,9
2023-01-08T10:31:14.954Z,8.8
2023-01-08T10:33:20.016Z,9.1
2023-01-08T10:37:23.927Z,9
2023-01-08T10:41:27.783Z,9
2023-01-08T10:43:29.787Z,9.2
2023-01-08T10:45:31.822Z,11.1
2023-01-08T10:47:36.978Z,11.3
2023-01-08T10:49:38.865Z,10.9
2023-01-08T10:51:40.866Z,11
2023-01-08T10:57:46.702Z,12
2023-01-08T10:59:48.615Z,10.7
2023-01-08T11:05:57.388Z,10.6
2023-01-08T11:08:25.982Z,12
2023-01-08T11:10:27.884Z,12.2
2023-01-08T11:12:29.770Z,11.7
2023-01-08T11:14:34.817Z,13.2
2023-01-08T11:16:36.797Z,13.5
2023-01-08T11:18:38.590Z,12.9
2023-01-08T11:20:40.454Z,12.1
2023-01-08T11:22:42.325Z,13.6
2023-01-08T11:24:44.226Z,14.7
2023-01-08T11:26:46.115Z,13.6
2023-01-08T11:28:51.112Z,13.8
2023-01-08T11:30:53.002Z,14
2023-01-08T11:32:54.891Z,14.1
2023-01-08T11:34:56.750Z,14.3
2023-01-08T11:36:58.623Z,14.3
2023-01-08T11:39:00.530Z,14.7
2023-01-08T11:41:02.388Z,14.6
2023-01-08T11:43:07.377Z,13.9
2023-01-08T11:45:09.241Z,14
2023-01-08T11:47:11.095Z,13
2023-01-08T11:49:12.970Z,12.7
2023-01-08T11:51:14.821Z,13.7
2023-01-08T11:53:16.683Z,14
2023-01-08T11:55:18.542Z,12.3
2023-01-08T11:57:23.563Z,12.6
2023-01-08T11:59:25.425Z,13.1
2023-01-08T12:01:27.341Z,14.3
2023-01-08T12:02:29.837Z,14.3
2023-01-08T12:04:31.660Z,13.7
2023-01-08T12:06:34.362Z,13.2
2023-01-08T12:08:35.371Z,14.3
2023-01-08T12:10:40.365Z,12.6
2023-01-08T12:12:42.230Z,12.4
2023-01-08T12:14:44.090Z,13.2
2023-01-08T12:16:46.037Z,13.9
2023-01-08T12:18:47.808Z,13.5
2023-01-08T12:20:49.688Z,13.5
2023-01-08T12:22:51.528Z,12.6
2023-01-08T12:24:56.528Z,13.6
2023-01-08T12:26:58.398Z,14.1
2023-01-08T12:29:00.276Z,13.9
2023-01-08T12:31:02.125Z,14.4
2023-01-08T12:33:04.011Z,14
2023-01-08T12:35:05.860Z,14.3
2023-01-08T12:37:07.719Z,14.2
2023-01-08T12:39:12.748Z,13.4
2023-01-08T12:41:14.591Z,13.2
2023-01-08T12:43:16.471Z,14
2023-01-08T12:45:18.326Z,13.9
2023-01-08T12:47:20.182Z,13.5
2023-01-08T12:49:22.056Z,13.6
2023-01-08T12:51:23.920Z,12.5
2023-01-08T12:53:28.906Z,10.5
2023-01-08T12:55:30.782Z,10.9
2023-01-08T12:57:32.627Z,10.7
2023-01-08T12:58:35.164Z,10.6
2023-01-08T13:00:37.008Z,10.7
2023-01-08T13:02:39.055Z,10.5
2023-01-08T13:04:40.729Z,9.8
2023-01-08T13:10:49.512Z,10.2
2023-01-08T13:21:02.070Z,10.1
2023-01-08T13:25:05.871Z,10.4
2023-01-08T13:29:09.643Z,10
2023-01-08T13:31:11.512Z,9.9
2023-01-08T13:33:13.393Z,9.6
2023-01-08T13:35:18.563Z,9.8
2023-01-08T13:37:27.568Z,9.3
2023-01-08T13:39:22.347Z,9.9
2023-01-08T13:41:24.254Z,9.9
2023-01-08T13:43:26.127Z,9.9
2023-01-08T13:47:29.920Z,9.7
2023-01-08T13:49:34.954Z,10
2023-01-08T13:51:36.915Z,9.7
2023-01-08T13:53:38.933Z,9.9
2023-01-08T13:56:43.447Z,9.8
2023-01-08T14:10:59.769Z,9.9
2023-01-08T14:13:01.648Z,10
2023-01-08T14:17:08.814Z,9.7
2023-01-08T14:19:10.779Z,9.7
2023-01-08T14:27:18.783Z,10
2023-01-08T14:29:20.704Z,9.7
2023-01-08T14:35:29.789Z,9.6
2023-01-08T14:37:31.811Z,9.4
2023-01-08T14:39:33.757Z,9.6
2023-01-08T14:41:35.647Z,9.5
2023-01-08T14:43:37.664Z,9.7
2023-01-08T14:45:42.984Z,9.3
2023-01-08T14:47:44.890Z,9.6
2023-01-08T14:49:46.887Z,9.3
2023-01-08T14:52:15.686Z,9.3
2023-01-08T14:54:17.572Z,9.3
2023-01-08T14:56:19.484Z,9.1
2023-01-08T15:00:28.108Z,9.2
2023-01-08T15:02:30.209Z,9.5
2023-01-08T15:04:32.045Z,9.4
2023-01-08T15:06:34.039Z,9.3
2023-01-08T15:08:35.930Z,9.3
2023-01-08T15:12:43.137Z,9.2
2023-01-08T15:14:45.030Z,9.2
2023-01-08T15:18:49.015Z,9.1
2023-01-08T15:20:50.987Z,9.1
2023-01-08T15:27:00.174Z,8.9
2023-01-08T15:29:02.230Z,8.9
2023-01-08T15:31:04.205Z,8.9
2023-01-08T15:33:06.181Z,8.8
2023-01-08T15:35:08.170Z,8.8
2023-01-08T15:37:10.152Z,9
2023-01-08T15:39:12.138Z,8.8
2023-01-08T15:41:17.347Z,8.9
2023-01-08T15:43:19.351Z,8.9
2023-01-08T15:45:21.336Z,8.7
2023-01-08T15:46:23.941Z,8.5
2023-01-08T15:48:25.919Z,9.1
2023-01-08T15:50:27.882Z,8.8
2023-01-08T15:52:29.914Z,8.6
2023-01-08T15:54:35.079Z,8.6
2023-01-08T15:56:37.071Z,8.4
2023-01-08T15:58:39.089Z,8.8
2023-01-08T16:00:41.122Z,8.4
2023-01-08T16:02:46.237Z,8.3
2023-01-08T16:04:44.969Z,8.2
2023-01-08T16:06:46.940Z,8.4
2023-01-08T16:08:52.172Z,8.4
2023-01-08T16:10:54.164Z,8.4
2023-01-08T16:12:56.112Z,7.8
2023-01-08T16:14:58.097Z,8.1
2023-01-08T16:17:00.089Z,7.9
2023-01-08T16:19:02.025Z,8.2
2023-01-08T16:21:03.996Z,8.1
2023-01-08T16:23:09.198Z,8.1
2023-01-08T16:25:11.192Z,8.1
2023-01-08T16:27:13.152Z,7.8
2023-01-08T16:29:15.118Z,8
2023-01-08T16:31:17.130Z,7.9
2023-01-08T16:33:19.030Z,8.4
2023-01-08T16:35:21.019Z,7.9
2023-01-08T16:37:26.229Z,7.9
2023-01-08T16:39:28.205Z,7.8
2023-01-08T16:41:30.178Z,7.7
2023-01-08T16:42:32.780Z,7.6
2023-01-08T16:44:34.742Z,7.9
2023-01-08T16:46:36.759Z,7.7
2023-01-08T16:48:38.706Z,7.3
2023-01-08T16:50:43.873Z,7.5
2023-01-08T16:52:45.890Z,7.6
2023-01-08T16:56:49.808Z,7.7
2023-01-08T16:58:51.828Z,7.3
2023-01-08T17:00:53.829Z,7.3
2023-01-08T17:02:55.746Z,7.3
2023-01-08T17:07:02.916Z,7.2
2023-01-08T17:09:04.907Z,7.2
2023-01-08T17:11:06.895Z,7.2
2023-01-08T17:13:08.826Z,7.8
2023-01-08T17:15:10.791Z,7
2023-01-08T17:17:12.768Z,7.2
2023-01-08T17:19:17.943Z,7.1
2023-01-08T17:21:19.903Z,7.9
2023-01-08T17:23:21.867Z,7.3
2023-01-08T17:25:23.849Z,7.3
2023-01-08T17:27:25.794Z,7.1
2023-01-08T17:29:27.767Z,7.6
2023-01-08T17:31:29.785Z,7.6
2023-01-08T17:33:34.910Z,7.5
2023-01-08T17:35:36.885Z,7.6
2023-01-08T17:37:38.841Z,7.9
2023-01-08T17:38:41.427Z,7.5
2023-01-08T17:40:43.412Z,7.5
2023-01-08T17:42:45.340Z,7.9
2023-01-08T17:48:54.467Z,7.6
2023-01-08T17:59:04.292Z,7.9
2023-01-08T18:01:09.646Z,7.4
2023-01-08T18:05:13.443Z,7.8
2023-01-08T18:07:15.401Z,7.8
2023-01-08T18:09:17.375Z,7.8
2023-01-08T18:11:19.338Z,7.8
2023-01-08T18:13:21.305Z,7.6
2023-01-08T18:15:26.506Z,7.6
2023-01-08T18:17:28.467Z,8
2023-01-08T18:19:30.405Z,7.2
2023-01-08T18:21:32.416Z,7.3
2023-01-08T18:23:34.376Z,7.6
2023-01-08T18:25:36.355Z,7.6
2023-01-08T18:27:38.302Z,7.4
2023-01-08T18:29:43.514Z,7.7
2023-01-08T18:31:46.430Z,7.6
2023-01-08T18:33:47.431Z,7.9
2023-01-08T18:36:16.301Z,7.5
2023-01-08T18:38:18.258Z,7.8
2023-01-08T18:40:20.204Z,7.7
2023-01-08T18:42:25.385Z,7.4
2023-01-08T18:44:27.355Z,7.5
2023-01-08T18:46:29.340Z,7.1
2023-01-08T18:48:31.276Z,7.3
2023-01-08T18:50:33.249Z,7.4
2023-01-08T18:52:35.231Z,7.5
2023-01-08T18:54:37.209Z,7.4
2023-01-08T18:56:42.387Z,7.3
2023-01-08T18:58:44.353Z,7.5
2023-01-08T19:02:48.423Z,7.4
2023-01-08T19:04:50.268Z,7.1
2023-01-08T19:06:52.224Z,7.2
2023-01-08T19:08:56.216Z,7.3
2023-01-08T19:10:59.378Z,7
2023-01-08T19:15:03.311Z,7.4
2023-01-08T19:17:05.287Z,6.9
2023-01-08T19:25:16.334Z,7.1
2023-01-08T19:27:18.319Z,7.5
2023-01-08T19:29:20.272Z,7.2
2023-01-08T19:30:22.862Z,7.2
2023-01-08T19:32:24.807Z,7.2
2023-01-08T19:34:26.772Z,6.9
2023-01-08T19:38:33.940Z,7.1
2023-01-08T19:40:35.902Z,6.9
2023-01-08T19:42:37.873Z,7.4
2023-01-08T19:44:39.837Z,7
2023-01-08T19:46:41.801Z,7.1
2023-01-08T19:48:43.818Z,6.6
2023-01-08T19:50:45.758Z,7.2
2023-01-08T19:52:50.950Z,7.2
2023-01-08T19:54:52.915Z,7
2023-01-08T19:56:54.865Z,6.9
2023-01-08T20:00:58.828Z,7
2023-01-08T20:07:07.891Z,7
2023-01-08T20:09:09.897Z,7.1
2023-01-08T20:11:11.833Z,7.2
2023-01-08T20:13:13.782Z,6.6
2023-01-08T20:15:15.769Z,7.2
2023-01-08T20:17:17.736Z,7.2
2023-01-08T20:21:24.867Z,7.1
2023-01-08T20:23:26.829Z,7.4
2023-01-08T20:25:28.802Z,7.1
2023-01-08T20:26:31.426Z,7.4
2023-01-08T20:28:33.365Z,7
2023-01-08T20:32:37.260Z,7.2
2023-01-08T20:34:42.448Z,7.3
2023-01-08T20:36:44.423Z,7.2
2023-01-08T20:38:46.383Z,7.2
2023-01-08T20:40:48.359Z,7.2
2023-01-08T20:42:50.345Z,7.3
2023-01-08T20:44:52.282Z,7.1
2023-01-08T20:46:54.208Z,7.2
2023-01-08T20:48:59.401Z,7.4
2023-01-08T20:51:02.912Z,7.2
2023-01-08T20:53:04.811Z,7.4
2023-01-08T20:55:06.803Z,7.4
2023-01-08T20:57:08.782Z,7
2023-01-08T20:59:10.729Z,6.9
2023-01-08T21:01:12.847Z,7.1
2023-01-08T21:03:17.926Z,7
2023-01-08T21:05:19.861Z,7.3
2023-01-08T21:07:21.824Z,7.2
2023-01-08T21:09:23.768Z,7.1
2023-01-08T21:11:25.730Z,7
2023-01-08T21:13:27.717Z,7
2023-01-08T21:17:34.907Z,6
2023-01-08T21:19:36.819Z,7.1
2023-01-08T21:21:40.223Z,7
2023-01-08T21:24:43.337Z,7.1
2023-01-08T21:26:45.277Z,7.4
2023-01-08T21:28:47.255Z,7.4
2023-01-08T21:30:52.445Z,7.4
2023-01-08T21:32:54.391Z,7.2
2023-01-08T21:34:56.363Z,7.5
2023-01-08T21:36:58.331Z,7.3
2023-01-08T21:39:00.316Z,7.3
2023-01-08T21:41:02.267Z,7.6
2023-01-08T21:43:04.184Z,7.4
2023-01-08T21:45:09.385Z,7.4
2023-01-08T21:47:11.350Z,7.6
2023-01-08T21:49:13.310Z,7.5
2023-01-08T21:51:15.263Z,7.5
2023-01-08T21:55:19.213Z,7.6
2023-01-08T21:57:21.191Z,7.6
2023-01-08T21:59:26.381Z,7.7
2023-01-08T22:07:34.219Z,7.7
2023-01-08T22:09:36.197Z,7.8
2023-01-08T22:11:38.150Z,7.7
2023-01-08T22:13:43.391Z,7.5
2023-01-08T22:15:45.308Z,7.8
2023-01-08T22:17:47.275Z,7.9
2023-01-08T22:20:16.116Z,8.1
2023-01-08T22:22:18.062Z,7.9
2023-01-08T22:24:20.009Z,7.6
2023-01-08T22:26:25.222Z,7.8
2023-01-08T22:32:31.116Z,7.7
2023-01-08T22:34:33.082Z,8
2023-01-08T22:36:35.036Z,8
2023-01-08T22:40:42.160Z,7.9
2023-01-08T22:42:44.133Z,7.9
2023-01-08T22:44:46.118Z,7.7
2023-01-08T22:48:50.053Z,7.8
2023-01-08T22:50:52.031Z,8.1
2023-01-08T22:52:53.994Z,8
2023-01-08T22:54:59.310Z,7.9
2023-01-08T22:57:01.195Z,8.1
2023-01-08T22:59:03.188Z,8.2
2023-01-08T23:01:05.136Z,8.1
2023-01-08T23:03:07.183Z,8.2
2023-01-08T23:05:09.095Z,8.2
2023-01-08T23:07:11.094Z,8.3
2023-01-08T23:09:16.266Z,8
2023-01-08T23:11:18.296Z,8.1
2023-01-08T23:13:20.249Z,8.1
2023-01-08T23:14:22.814Z,8.1
2023-01-08T23:16:25.358Z,8.2
2023-01-08T23:22:33.993Z,7.8
2023-01-08T23:24:35.920Z,8
2023-01-08T23:26:37.908Z,7.8
2023-01-08T23:28:39.891Z,7.9
2023-01-08T23:30:41.870Z,7.7
2023-01-08T23:32:43.834Z,7.8
2023-01-08T23:34:45.795Z,7.6
2023-01-08T23:36:50.972Z,7.4
2023-01-08T23:38:52.955Z,7.5
2023-01-08T23:40:54.957Z,7.4
2023-01-08T23:42:56.896Z,7.2
2023-01-08T23:47:01.364Z,7.6
2023-01-08T23:49:03.329Z,7.5
2023-01-08T23:51:08.520Z,7.3
2023-01-08T23:53:10.459Z,7.3
2023-01-08T23:55:12.447Z,7.1
2023-01-08T23:57:14.410Z,7.3
2023-01-08T23:59:16.371Z,7.2
